カラチ の空港の天気 - METARとTAF

ジンナー国際空港(カラチ) ( OPKC / KHI ) - パキスタン Karachi
飛行場実況気象(Metar)
観測時間01/20 22:25 PKT (01/20 17:25 UTC)
風向・風速北北東 6m/s
視程6000m
天気現象
なし
気温17℃
湿度39%
気圧1021hPa
METAROPKC 201725Z 02011KT 6000 NSC 17/03 Q1021 NOSIG
過去の天気等 Google飛行場航空写真 Wunderground天気予報

過去48時間のMETAR

飛行場予報(TAF)
発表時間: 1/20 20:30 PKT (1/20 15:30 UTC)
予報対象時間: 20日23時 PKT ~ 22日5時 PKT
風向・風速北東 8m/s 瞬間風速 13m/s
視程5,000m
天気現象煙霧
全天の4割程度の雲 雲底高度 610m
21日5時 PKT ~ 21日9時 PKT に一時的に
風向・風速北東 5m/s 瞬間風速 10m/s
視程4,000m
天気現象
全天の4割程度の雲 雲底高度 610m
21日9時 PKT から
風向・風速北東 5m/s 瞬間風速 10m/s
視程6,000m
なし
21日23時 PKT から
風向・風速北東 4m/s 瞬間風速 9m/s
視程5,000m
天気現象煙霧
全天の4割程度の雲 雲底高度 610m
TAF OPKC 201530Z 2018/2124 04015G25KT 5000 HZ SCT020
TEMPO 2100/2104 04010G20KT 4000 FU SCT020
FM 210400 04010G20KT 6000 NSC
FM211800 04008G18KT 5000 HZ SCT020